Capitol Logistics 595




RCTP
Taiwan Taoyuan International Airport
Taipei, TW
RJAA
Tokyo-Narita International Airport
Tokyo, JP

Activity Log

Date Flight Route Aircraft Duration
No Flights Yet

Route Details

Aircraft Information
Group: Trans-Pacific Ops
Types: B744,B763,MD11
Route Data
Demand: M
Distance: 1179nm
Duration: 3h 00m
Recm'd Route: MOLKA1C MOLKA M750 BILLY Y21 AKSEL RUTAS
Origin Wx: RCTP 272130Z VRB02KT 6000 -SHRA SCT004 BKN006 BKN015 24/24 Q1005 NOSIG RMK A2970
Dest. Wx: RJAA 272130Z VRB01KT 9999 FEW015 BKN090 18/17 Q1000 NOSIG RMK 1CU015 6AC090 A2953
Notes:

Financial History
Total Freight: 0lbs
Average Load: 0lbs/flt
Fuel Used: 0lbs
Avg. Fuel Used: 0lbs/flt
Fuel Expense: $0
Avg. Fuel Expense: $0
Avg. Fuel Cost: $0/lbs
Total Gross Income: $0
Pilot Pay: $0
Total Expenses: $0
Total Revenue: $0
Average Revenue: $0